Porterville, Mississippi
Current Conditions -  °F | °C
As of 7:56 PM on Saturday 22 Nov 2014 (Local Time) from KNMM Reporting Station
Overcast Overcast  
Wind Chill: 63°   Ceiling: 2600
Heat Index: 63°   Visibility: 10mi
Dew Point: 53°   Wind: 7mph
Humidity: 70%   Direction: 130°SE
Pressure: 30.08"   Gusts: NA
Location:  32.69°N, 88.47°W
Report Text: KNMM 230156Z AUTO 13006KT 10SM OVC026 17/12 A3008 RMK AO2 SLPNO T01720117 $
Loading
Personal Weather Stations






























Interactive Weather Map New forecast layout! Learn more

10-Day Weather Forecast

Advertisements
Track Severe Weather on mobile